Nearby METAR Reports

 

KMQS - Coatesville, Pennsylvania, USA
Distance from station: ENE 6mi, 10km
Updated: Tue, 16-Jan-2018 5:35am EST
Overcast
Overcast
 Wind from calm
Wind: Calm
Temperature: 28°F , -2°C
Dew Point: 28°F , -2°C
Humidity: 100%
Barometer: 30.45 inHg , 1031.2 hPa
Clouds: Overcast
Visibility: 7 miles , 11 km
Cloud details: Overcast 600 ft
2018/01/16 10:35 KMQS 161035Z AUTO 00000KT 7SM OVC006 M02/M02 A3045 RMK AO2
KLNS - Lancaster, Pennsylvania, USA
Distance from station: NW 21mi, 33km
Updated: Tue, 16-Jan-2018 5:53am EST
Light snow, Mist, Overcast
Light snow, Mist, Overcast
 Wind from calm
Wind: Calm
Temperature: 27°F , -3°C
Dew Point: 27°F , -3°C
Humidity: 100%
Barometer: 30.45 inHg , 1031.2 hPa
Summary: Light snow, Mist
Clouds: Overcast
Visibility: 1 1/4 miles , 2 km
Cloud details: Overcast 1300 ft
2018/01/16 10:53 KLNS 161053Z 00000KT 1 1/4SM -SN BR OVC013 M03/M03 A3045 RMK AO2 SLP317 P0000 T10281033
 
KILG - Wilmington, Delaware, USA
Distance from station: SE 28mi, 45km
Updated: Tue, 16-Jan-2018 5:51am EST
Overcast
Overcast
 Wind from N
Wind: N 3 mph , 6 km/h
Temperature: 30°F , -1°C
Dew Point: 27°F , -3°C
Humidity: 86%
Barometer: 30.49 inHg , 1032.5 hPa
Clouds: Overcast
Visibility: 10 miles , 16 km
Cloud details: Overcast 1700 ft
2018/01/16 10:51 KILG 161051Z AUTO 01003KT 10SM OVC017 M01/M03 A3049 RMK AO2 SNE02B35E45 SLP324 P0000 T10111033
KRDG - Reading, Pennsylvania, USA
Distance from station: N 29mi, 47km
Updated: Tue, 16-Jan-2018 5:54am EST
Light snow, Mist, Overcast
Light snow, Mist, Overcast
 Wind from SSE
Wind: SSE 7 mph , 11 km/h
Temperature: 28°F , -2°C
Wind Chill: 21°F , -6°C
Dew Point: 27°F , -3°C
Humidity: 93%
Barometer: 30.45 inHg , 1031.2 hPa
Summary: Light snow, Mist
Clouds: Overcast
Visibility: 4 miles , 6 km
Cloud details: Mostly cloudy 2600 ft
Overcast 3200 ft
2018/01/16 10:54 KRDG 161054Z 16006KT 4SM -SN BR BKN026 OVC032 M02/M03 A3045 RMK AO2 SLP320 P0000 T10221028
 
KPTW - Pottstown, Pennsylvania, USA
Distance from station: NE 30mi, 48km
Updated: Tue, 16-Jan-2018 5:54am EST
Mist, Overcast
Mist, Overcast
 Wind from calm
Wind: Calm
Temperature: 27°F , -3°C
Dew Point: 23°F , -5°C
Humidity: 86%
Barometer: 30.48 inHg , 1032.2 hPa
Summary: Mist
Clouds: Overcast
Visibility: 6 miles , 10 km
Cloud details: Overcast 1500 ft
2018/01/16 10:54 KPTW 161054Z AUTO 00000KT 6SM BR OVC015 M03/M05 A3048 RMK AO2 SLP324 T10331050